Time;durP1;ratioP1;P1;durP2;ratioP2;P2;SDS_P1;SDS_P2;PMS_P1;PMS_P2;Temp;Humidity;BMP_temperature;BMP_pressure;BME280_temperature;BME280_humidity;BME280_pressure;Samples;Min_cycle;Max_cycle;Signal;HPM_P1;HPM_P2
2022/08/02 00:02:00;;;;;;;6.13;2.10;;;;;;;16.88;58.56;101681.22;5283905;28;20029;-74
2022/08/02 00:04:31;;;;;;;8.17;2.67;;;;;;;16.95;58.07;101676.66;5284542;28;20032;-73
2022/08/02 00:07:03;;;;;;;5.07;2.13;;;;;;;16.69;58.84;101672.00;5283708;28;20052;-74
2022/08/02 00:09:34;;;;;;;6.67;2.33;;;;;;;16.86;58.46;101674.28;5283780;28;20032;-73
2022/08/02 00:12:06;;;;;;;5.70;2.50;;;;;;;16.95;58.42;101676.66;5284011;28;20033;-74
2022/08/02 00:14:37;;;;;;;5.18;2.50;;;;;;;16.88;58.70;101678.59;5265956;28;20037;-73
2022/08/02 00:17:09;;;;;;;4.30;2.13;;;;;;;16.77;59.12;101664.78;5283455;28;20360;-73
2022/08/02 00:19:40;;;;;;;6.60;2.40;;;;;;;16.66;58.72;101665.03;5283324;28;20025;-74
2022/08/02 00:22:12;;;;;;;5.53;2.27;;;;;;;16.69;58.88;101669.38;5283782;28;20116;-73
2022/08/02 00:24:43;;;;;;;7.57;2.37;;;;;;;16.67;58.65;101672.06;5283519;28;20028;-74
2022/08/02 00:27:14;;;;;;;8.90;2.30;;;;;;;16.66;58.66;101675.56;5283447;28;20448;-73
2022/08/02 00:29:46;;;;;;;6.03;3.77;;;;;;;16.80;59.14;101680.50;5265521;28;20041;-73
2022/08/02 00:32:17;;;;;;;6.73;2.33;;;;;;;16.63;59.64;101686.22;5283175;28;20040;-73
2022/08/02 00:34:49;;;;;;;4.90;2.23;;;;;;;16.68;59.11;101683.44;5283330;28;20087;-73
2022/08/02 00:37:21;;;;;;;4.53;2.13;;;;;;;16.73;58.62;101686.84;5282973;28;20434;-73
2022/08/02 00:39:52;;;;;;;5.00;2.10;;;;;;;16.75;58.69;101695.56;5265008;28;20037;-72
2022/08/02 00:42:23;;;;;;;4.33;2.13;;;;;;;16.83;58.30;101683.09;5282970;28;20035;-73
2022/08/02 00:44:55;;;;;;;6.37;1.70;;;;;;;16.65;58.25;101675.66;5282996;28;20127;-73
2022/08/02 00:47:26;;;;;;;4.37;1.87;;;;;;;16.53;58.67;101680.25;5282866;28;20032;-73
2022/08/02 00:49:57;;;;;;;4.70;2.67;;;;;;;16.50;58.59;101680.38;5282677;28;20110;-73
2022/08/02 00:52:30;;;;;;;;;;;;;;;16.68;57.17;101678.16;5282922;28;20049;-73
2022/08/02 00:55:01;;;;;;;3.58;1.83;;;;;;;16.52;58.09;101664.53;5265240;28;19920;-73
2022/08/02 00:57:33;;;;;;;6.33;2.23;;;;;;;16.49;57.80;101662.84;5282870;28;20043;-72
2022/08/02 01:00:05;;;;;;;5.23;2.27;;;;;;;16.47;58.45;101659.38;5282670;28;20028;-72
2022/08/02 01:02:37;;;;;;;4.72;2.10;;;;;;;16.46;57.24;101651.53;5282928;28;20028;-73
2022/08/02 01:05:09;;;;;;;6.10;2.07;;;;;;;16.44;57.14;101648.91;5282609;28;20135;-73
2022/08/02 01:07:40;;;;;;;6.65;1.83;;;;;;;16.47;57.70;101648.84;5282019;28;20027;-73
2022/08/02 01:10:12;;;;;;;5.03;2.60;;;;;;;16.49;58.94;101652.31;5264497;28;20388;-73
2022/08/02 01:12:44;;;;;;;6.07;2.10;;;;;;;16.29;57.89;101650.13;5282455;28;20418;-72
2022/08/02 01:15:16;;;;;;;2.85;1.70;;;;;;;16.20;58.59;101659.09;5282344;28;20032;-72
2022/08/02 01:17:54;;;;;;;4.50;2.35;;;;;;;16.22;58.65;101656.44;5264932;28;20124;-73
2022/08/02 01:20:34;;;;;;;6.82;2.08;;;;;;;16.12;58.57;101654.91;5282479;28;20044;-73
2022/08/02 01:23:24;;;;;;;3.65;1.88;;;;;;;16.24;59.40;101657.25;5282957;28;20034;-72
2022/08/02 01:26:17;;;;;;;3.72;1.73;;;;;;;16.09;59.20;101663.72;5287061;28;20028;-72
2022/08/02 01:29:12;;;;;;;4.30;1.90;;;;;;;16.21;59.04;101660.84;5289024;28;20070;-73
2022/08/02 01:31:47;;;;;;;4.63;1.90;;;;;;;16.28;59.14;101661.56;5282768;28;20407;-72
2022/08/02 01:34:34;;;;;;;5.18;1.80;;;;;;;16.37;58.71;101663.09;5282887;28;20029;-72
2022/08/02 01:37:20;;;;;;;6.18;2.13;;;;;;;16.28;59.12;101658.94;5282638;28;20035;-72
2022/08/02 01:39:59;;;;;;;4.40;2.17;;;;;;;16.26;59.59;101657.22;5282574;28;20383;-73
2022/08/02 01:42:32;;;;;;;8.02;2.28;;;;;;;16.19;59.97;101656.50;5282683;28;20033;-73
2022/08/02 01:45:05;;;;;;;6.30;2.30;;;;;;;16.23;60.58;101651.13;5282487;28;20481;-73
2022/08/02 01:47:39;;;;;;;5.82;2.08;;;;;;;16.18;60.99;101645.13;5264031;28;20036;-73
2022/08/02 01:50:13;;;;;;;7.35;2.00;;;;;;;16.02;60.47;101634.06;5282075;28;20052;-73
2022/08/02 01:52:48;;;;;;;6.38;2.45;;;;;;;15.99;60.42;101642.03;5282422;28;20059;-73
2022/08/02 01:55:30;;;;;;;6.57;2.35;;;;;;;16.09;60.02;101632.16;5282487;28;20400;-73
2022/08/02 01:58:05;;;;;;;6.40;2.72;;;;;;;16.12;60.74;101629.47;5282275;28;20035;-73
2022/08/02 02:00:39;;;;;;;8.45;2.55;;;;;;;16.06;61.08;101634.00;5281919;28;20103;-73
2022/08/02 02:03:19;;;;;;;5.13;2.50;;;;;;;15.93;60.74;101630.78;5282732;28;20032;-73
2022/08/02 02:05:55;;;;;;;9.65;3.17;;;;;;;16.01;60.97;101629.69;5282956;28;20063;-73
2022/08/02 02:08:33;;;;;;;5.70;2.45;;;;;;;15.86;61.05;101622.16;5283166;28;20064;-74
2022/08/02 02:11:05;;;;;;;6.15;2.40;;;;;;;15.92;61.44;101624.63;5283438;28;20032;-74
2022/08/02 02:13:41;;;;;;;6.50;2.15;;;;;;;15.80;61.83;101623.16;5284566;28;20040;-73
2022/08/02 02:16:14;;;;;;;5.88;2.10;;;;;;;15.86;62.63;101625.66;5282109;28;20032;-73
2022/08/02 02:18:47;;;;;;;5.57;2.47;;;;;;;15.94;62.54;101622.88;5282550;28;20068;-73
2022/08/02 02:21:19;;;;;;;6.88;2.35;;;;;;;15.82;63.40;101613.44;5285573;28;20024;-73
2022/08/02 02:23:50;;;;;;;7.90;2.10;;;;;;;15.76;63.34;101607.44;5285528;28;20085;-73
2022/08/02 02:26:22;;;;;;;5.97;2.60;;;;;;;15.57;63.40;101604.31;5285787;28;20111;-73
2022/08/02 02:28:55;;;;;;;8.03;2.57;;;;;;;15.69;63.47;101593.56;5286475;28;20538;-73
2022/08/02 02:31:31;;;;;;;5.68;2.30;;;;;;;15.74;64.53;101594.31;5268398;28;20432;-73
2022/08/02 02:34:13;;;;;;;5.57;2.28;;;;;;;15.54;64.36;101592.13;5285559;28;20035;-73
2022/08/02 02:36:49;;;;;;;4.38;2.30;;;;;;;15.58;64.43;101595.56;5285693;28;20021;-73
2022/08/02 02:39:22;;;;;;;5.80;2.28;;;;;;;15.69;64.44;101601.44;5285659;28;20197;-72
2022/08/02 02:41:56;;;;;;;4.95;2.05;;;;;;;15.53;64.27;101603.53;5286115;28;20037;-72
2022/08/02 02:44:30;;;;;;;6.47;2.60;;;;;;;15.52;64.88;101599.19;5285486;28;20447;-72
2022/08/02 02:47:02;;;;;;;5.90;2.20;;;;;;;15.65;65.01;101598.03;5285181;28;20481;-72
2022/08/02 02:49:35;;;;;;;;;;;;;;;15.62;62.92;101603.34;5285530;28;20036;-73
2022/08/02 02:52:07;;;;;;;7.20;2.72;;;;;;;15.59;65.50;101598.16;5286393;28;19951;-72
2022/08/02 02:54:40;;;;;;;7.20;2.70;;;;;;;15.56;66.05;101599.97;5285936;28;20051;-73
2022/08/02 02:57:11;;;;;;;;;;;;;;;15.56;63.36;101607.88;5294831;28;20036;-72
2022/08/02 02:59:43;;;;;;;6.53;2.10;;;;;;;15.44;66.08;101607.22;5288750;28;19973;-72
2022/08/02 03:02:16;;;;;;;8.27;2.38;;;;;;;15.38;66.12;101603.84;5285660;28;20043;-73
2022/08/02 03:04:48;;;;;;;5.50;2.25;;;;;;;15.25;66.53;101601.44;5285162;28;20131;-72
2022/08/02 03:07:20;;;;;;;7.13;2.65;;;;;;;15.23;66.99;101590.13;5284933;28;20040;-72
2022/08/02 03:09:51;;;;;;;6.80;1.90;;;;;;;15.26;67.21;101583.91;5284770;28;20043;-72
2022/08/02 03:12:23;;;;;;;9.77;2.73;;;;;;;15.14;67.13;101580.63;5284845;28;20024;-73
2022/08/02 03:14:56;;;;;;;;;;;;;;;15.27;64.80;101594.41;5285502;28;20036;-72
2022/08/02 03:17:41;;;;;;;10.00;2.80;;;;;;;15.29;66.60;101583.88;5284649;28;19975;-73
2022/08/02 03:20:16;;;;;;;8.65;2.72;;;;;;;15.16;66.96;101585.84;5267381;28;20029;-74
2022/08/02 03:22:48;;;;;;;8.55;2.38;;;;;;;15.15;67.08;101584.16;5284825;28;20020;-74
2022/08/02 03:25:20;;;;;;;7.43;2.60;;;;;;;15.13;66.78;101581.56;5285047;28;20028;-74
2022/08/02 03:27:51;;;;;;;5.27;2.60;;;;;;;15.17;67.32;101594.63;5284499;28;20033;-74
2022/08/02 03:30:25;;;;;;;8.20;3.10;;;;;;;15.19;66.31;101595.44;5266428;28;20414;-74
2022/08/02 03:32:57;;;;;;;6.07;2.70;;;;;;;15.31;68.36;101589.94;5267125;28;20036;-74
2022/08/02 03:35:28;;;;;;;5.57;2.63;;;;;;;15.19;67.87;101596.31;5284561;28;20472;-73
2022/08/02 03:38:00;;;;;;;6.73;2.47;;;;;;;15.26;68.15;101595.31;5284775;28;20448;-73
2022/08/02 03:40:32;;;;;;;6.93;2.97;;;;;;;15.14;67.98;101583.25;5284649;28;20376;-73
2022/08/02 03:43:05;;;;;;;8.20;2.50;;;;;;;15.18;68.55;101578.81;5284248;28;20036;-73
2022/08/02 03:45:42;;;;;;;6.82;2.75;;;;;;;15.17;68.78;101577.09;5283853;28;20036;-73
2022/08/02 03:48:15;;;;;;;5.35;2.53;;;;;;;15.08;68.61;101574.63;5283873;28;20040;-73
2022/08/02 03:50:47;;;;;;;5.63;2.78;;;;;;;15.00;69.67;101568.66;5283965;28;20063;-73
2022/08/02 03:53:20;;;;;;;5.82;2.72;;;;;;;15.09;69.43;101571.97;5284800;28;20029;-74
2022/08/02 03:55:52;;;;;;;8.85;2.95;;;;;;;14.96;69.61;101573.13;5284315;28;20040;-73
2022/08/02 03:58:24;;;;;;;7.20;2.88;;;;;;;15.04;69.57;101565.09;5284707;28;20375;-74
2022/08/02 04:00:56;;;;;;;5.33;2.73;;;;;;;15.05;70.00;101564.19;5284704;28;20029;-73
2022/08/02 04:03:28;;;;;;;7.00;2.50;;;;;;;15.04;70.65;101570.34;5284362;28;20031;-73
2022/08/02 04:05:59;;;;;;;8.95;3.30;;;;;;;14.98;69.94;101559.97;5284357;28;20468;-72
2022/08/02 04:08:32;;;;;;;5.97;2.60;;;;;;;14.99;69.54;101553.81;5283677;28;20042;-74
2022/08/02 04:13:53;;;;;;;5.65;2.60;;;;;;;15.05;70.53;101545.81;5284001;28;19931;-74
2022/08/02 04:16:33;;;;;;;6.27;2.43;;;;;;;14.97;70.90;101552.97;5283731;28;20033;-74
2022/08/02 04:19:07;;;;;;;8.30;2.88;;;;;;;14.93;71.27;101549.53;5283884;28;20036;-73
2022/08/02 04:21:40;;;;;;;10.25;3.65;;;;;;;14.88;71.38;101552.25;5265869;28;20117;-73
2022/08/02 04:24:15;;;;;;;7.88;2.45;;;;;;;14.82;72.09;101554.13;5284933;28;20029;-73
2022/08/02 04:26:47;;;;;;;16.95;3.20;;;;;;;14.86;72.10;101556.66;5291857;28;20082;-74
2022/08/02 04:29:19;;;;;;;8.55;3.78;;;;;;;14.92;72.43;101558.31;5288744;28;20029;-75
2022/08/02 04:31:52;;;;;;;7.22;4.10;;;;;;;14.95;72.00;101553.00;5283723;28;20468;-75
2022/08/02 04:34:24;;;;;;;7.90;3.13;;;;;;;14.98;71.85;101557.34;5283526;28;20078;-75
2022/08/02 04:36:57;;;;;;;6.13;2.87;;;;;;;14.95;72.68;101561.72;5265765;28;20060;-75
2022/08/02 04:39:29;;;;;;;7.97;3.63;;;;;;;15.05;73.44;101569.44;5265677;28;20055;-75
2022/08/02 04:42:00;;;;;;;7.33;2.73;;;;;;;15.01;73.61;101570.41;5282869;28;20032;-75
2022/08/02 04:44:31;;;;;;;5.47;2.70;;;;;;;15.08;74.17;101565.00;5283346;28;20490;-75
2022/08/02 04:47:04;;;;;;;7.17;3.30;;;;;;;14.93;72.94;101574.03;5283180;28;20111;-75
2022/08/02 04:49:35;;;;;;;;;;;;;;;15.09;71.10;101568.50;5283270;28;20062;-75
2022/08/02 04:52:07;;;;;;;9.52;3.35;;;;;;;15.16;74.26;101561.38;5282983;28;20302;-75
2022/08/02 04:54:38;;;;;;;11.13;3.70;;;;;;;15.12;74.31;101553.56;5282813;28;20063;-75
2022/08/02 04:59:59;;;;;;;7.72;3.65;;;;;;;15.18;74.98;101549.91;5283289;28;20048;-75
2022/08/02 05:02:31;;;;;;;8.13;3.70;;;;;;;15.23;75.43;101558.59;5282977;28;20028;-75
2022/08/02 05:05:02;;;;;;;9.27;5.07;;;;;;;15.25;74.78;101548.91;5283553;28;20032;-76
2022/08/02 05:07:34;;;;;;;6.73;3.40;;;;;;;15.29;75.66;101552.34;5283125;28;20032;-76
2022/08/02 05:10:05;;;;;;;7.77;3.30;;;;;;;15.26;75.15;101548.03;5285053;28;20033;-75
2022/08/02 05:12:38;;;;;;;9.20;4.03;;;;;;;15.32;75.58;101550.50;5293233;28;20033;-75
2022/08/02 05:15:11;;;;;;;9.40;4.40;;;;;;;15.45;76.42;101558.16;5285221;28;20039;-75
2022/08/02 05:17:47;;;;;;;10.90;4.43;;;;;;;15.50;76.05;101559.81;5284727;28;20033;-75
2022/08/02 05:20:19;;;;;;;14.13;5.68;;;;;;;15.62;75.67;101552.56;5265040;28;20040;-75
2022/08/02 05:22:50;;;;;;;6.50;4.70;;;;;;;15.71;75.26;101549.69;5283428;28;20036;-75
2022/08/02 05:25:22;;;;;;;11.73;5.67;;;;;;;15.80;76.89;101548.69;5282982;28;20352;-75
2022/08/02 05:27:56;;;;;;;7.10;4.53;;;;;;;15.88;76.62;101543.25;5266239;28;20039;-75
2022/08/02 05:30:28;;;;;;;12.60;6.07;;;;;;;15.97;76.21;101543.91;5283115;28;20070;-74
2022/08/02 05:32:59;;;;;;;13.47;6.47;;;;;;;16.08;76.40;101530.47;5282810;28;20037;-76
2022/08/02 05:35:32;;;;;;;13.30;5.97;;;;;;;16.15;76.52;101528.59;5282537;28;20033;-74
2022/08/02 05:38:03;;;;;;;11.75;6.28;;;;;;;16.21;76.38;101536.31;5282654;28;20024;-74
2022/08/02 05:40:35;;;;;;;9.17;5.17;;;;;;;16.32;76.35;101542.19;5282276;28;20032;-74
2022/08/02 05:43:13;;;;;;;11.63;5.80;;;;;;;16.40;76.56;101535.00;5282708;28;20405;-74
2022/08/02 05:45:45;;;;;;;8.98;5.90;;;;;;;16.55;77.57;101536.34;5282225;28;20115;-75
2022/08/02 05:48:16;;;;;;;10.20;5.73;;;;;;;16.64;76.46;101535.25;5282146;28;20043;-75
2022/08/02 05:50:52;;;;;;;9.93;5.87;;;;;;;16.75;76.64;101535.81;5282726;28;20738;-75
2022/08/02 05:53:40;;;;;;;12.30;5.65;;;;;;;16.85;76.53;101547.00;5282044;28;20055;-75
2022/08/02 05:56:37;;;;;;;11.43;6.78;;;;;;;17.04;75.03;101547.38;5287493;28;20090;-74
2022/08/02 05:59:33;;;;;;;12.07;5.90;;;;;;;17.27;75.56;101559.03;5287082;28;20371;-74
2022/08/02 06:02:26;;;;;;;9.70;5.93;;;;;;;17.47;74.38;101563.75;5286964;28;20111;-74
2022/08/02 06:05:10;;;;;;;;;;;;;;;17.58;73.03;101559.03;5286571;28;20480;-75
2022/08/02 06:07:44;;;;;;;19.27;6.82;;;;;;;17.59;75.43;101560.72;5285920;28;20315;-74
2022/08/02 06:10:19;;;;;;;11.15;5.95;;;;;;;17.65;74.01;101570.25;5286266;28;20491;-75
2022/08/02 06:12:55;;;;;;;10.57;5.82;;;;;;;17.70;74.83;101570.97;5286098;28;20050;-75
2022/08/02 06:15:27;;;;;;;8.88;5.88;;;;;;;17.80;74.38;101575.03;5286146;28;20035;-74
2022/08/02 06:18:00;;;;;;;12.00;6.53;;;;;;;17.94;73.34;101579.09;5286646;28;20025;-73
2022/08/02 06:20:36;;;;;;;11.02;6.75;;;;;;;18.03;73.59;101568.22;5286804;28;20098;-74
2022/08/02 06:23:07;;;;;;;9.65;6.82;;;;;;;17.99;73.84;101570.09;5268524;28;20028;-73
2022/08/02 06:25:41;;;;;;;11.40;6.27;;;;;;;17.92;73.28;101575.59;5285966;28;20036;-74
2022/08/02 06:28:15;;;;;;;13.02;6.35;;;;;;;17.88;73.98;101569.56;5285898;28;20483;-73
2022/08/02 06:30:46;;;;;;;12.75;6.78;;;;;;;17.98;73.92;101565.75;5285693;28;20361;-73
2022/08/02 06:33:18;;;;;;;11.40;6.13;;;;;;;18.04;73.43;101562.91;5286082;28;20032;-73
2022/08/02 06:36:02;;;;;;;9.43;7.13;;;;;;;18.02;73.17;101554.16;5286368;28;20040;-72
2022/08/02 06:38:40;;;;;;;11.43;6.43;;;;;;;18.10;73.64;101561.00;5285672;28;20052;-74
2022/08/02 06:41:13;;;;;;;10.57;6.35;;;;;;;18.17;74.36;101557.25;5285635;28;20036;-74
2022/08/02 06:43:59;;;;;;;10.18;6.22;;;;;;;18.26;73.86;101559.59;5286352;28;20028;-73
2022/08/02 06:46:32;;;;;;;10.88;7.10;;;;;;;18.36;73.96;101560.16;5286142;28;20378;-74
2022/08/02 06:49:03;;;;;;;11.80;6.88;;;;;;;18.39;75.11;101544.22;5267719;28;20036;-74
2022/08/02 06:51:35;;;;;;;10.87;7.90;;;;;;;18.52;73.84;101549.94;5286528;28;20053;-73
2022/08/02 06:54:06;;;;;;;12.63;8.87;;;;;;;18.58;74.23;101549.72;5285841;28;20266;-74
2022/08/02 06:56:38;;;;;;;13.63;8.43;;;;;;;18.65;74.60;101548.59;5286244;28;20044;-73
2022/08/02 06:59:09;;;;;;;18.17;8.70;;;;;;;18.77;74.88;101552.56;5285035;28;20033;-74
2022/08/02 07:01:40;;;;;;;11.10;8.37;;;;;;;18.85;73.98;101549.72;5285277;28;20043;-75
2022/08/02 07:04:12;;;;;;;14.40;8.63;;;;;;;18.92;74.15;101545.94;5285572;28;20029;-75
2022/08/02 07:06:43;;;;;;;18.70;9.33;;;;;;;19.01;74.23;101556.16;5284984;28;20048;-74
2022/08/02 07:09:15;;;;;;;14.63;9.73;;;;;;;19.12;73.68;101550.50;5285891;28;20024;-74
2022/08/02 07:11:46;;;;;;;15.20;9.93;;;;;;;19.22;74.25;101553.66;5267794;28;20072;-75
2022/08/02 07:14:17;;;;;;;15.57;8.93;;;;;;;19.38;73.54;101562.75;5267522;28;20029;-75
2022/08/02 07:16:49;;;;;;;13.33;8.57;;;;;;;19.51;73.45;101568.44;5267858;28;20055;-74
2022/08/02 07:19:20;;;;;;;17.23;8.27;;;;;;;19.65;72.64;101562.63;5285211;28;20047;-74
2022/08/02 07:21:51;;;;;;;19.33;9.13;;;;;;;19.77;72.11;101561.31;5267127;28;20399;-74
2022/08/02 07:24:23;;;;;;;8.73;7.03;;;;;;;19.75;71.16;101560.50;5285548;28;20119;-74
2022/08/02 07:26:54;;;;;;;10.88;7.47;;;;;;;19.71;70.79;101550.97;5270542;28;20040;-74
2022/08/02 07:29:26;;;;;;;13.03;7.17;;;;;;;19.72;71.01;101550.88;5290038;28;20036;-73
2022/08/02 07:31:57;;;;;;;17.10;7.87;;;;;;;19.72;73.06;101545.59;5285386;28;20079;-73
2022/08/02 07:34:29;;;;;;;9.93;7.10;;;;;;;19.83;71.85;101539.91;5285247;28;20416;-73
2022/08/02 07:37:00;;;;;;;11.07;6.30;;;;;;;19.97;71.06;101545.53;5266786;28;20181;-73
2022/08/02 07:39:32;;;;;;;12.27;6.57;;;;;;;20.03;72.12;101537.34;5285117;28;20032;-74
2022/08/02 07:42:04;;;;;;;10.57;6.47;;;;;;;20.16;71.37;101537.72;5284318;28;20466;-74
2022/08/02 07:44:35;;;;;;;10.77;6.75;;;;;;;20.28;69.41;101538.13;5284930;28;20464;-74
2022/08/02 07:47:06;;;;;;;11.40;7.80;;;;;;;20.34;69.60;101536.06;5284600;28;20456;-73
2022/08/02 07:49:38;;;;;;;14.10;6.67;;;;;;;20.35;70.28;101542.22;5285016;28;20106;-74
2022/08/02 07:52:09;;;;;;;13.47;6.30;;;;;;;20.51;69.58;101538.03;5267118;28;20036;-75
2022/08/02 07:54:41;;;;;;;7.80;5.30;;;;;;;20.63;68.43;101539.28;5284865;28;20537;-75
2022/08/02 07:57:12;;;;;;;7.57;5.50;;;;;;;20.80;67.86;101559.78;5285050;28;20033;-74
2022/08/02 07:59:45;;;;;;;10.63;5.70;;;;;;;20.89;67.16;101553.22;5284640;28;20036;-73
2022/08/02 08:02:16;;;;;;;9.30;5.15;;;;;;;21.09;66.63;101558.50;5284315;28;20374;-73
2022/08/02 08:04:48;;;;;;;8.67;4.83;;;;;;;21.11;66.25;101548.69;5284186;28;20115;-73
2022/08/02 08:07:19;;;;;;;8.67;5.17;;;;;;;21.31;65.29;101547.75;5284297;28;20043;-73
2022/08/02 08:09:51;;;;;;;5.70;4.20;;;;;;;21.43;65.07;101546.34;5284638;28;20060;-73
2022/08/02 08:12:22;;;;;;;5.33;4.50;;;;;;;21.47;65.24;101539.13;5272720;28;20062;-74
2022/08/02 08:14:53;;;;;;;9.03;3.93;;;;;;;21.69;63.18;101536.34;5276191;28;20025;-74
2022/08/02 08:17:25;;;;;;;7.33;4.03;;;;;;;21.69;62.92;101549.63;5284983;28;20360;-73
2022/08/02 08:19:57;;;;;;;6.72;3.83;;;;;;;21.54;63.19;101545.91;5284859;28;20154;-73
2022/08/02 08:22:28;;;;;;;7.70;3.43;;;;;;;21.71;62.32;101562.81;5284607;28;20028;-73
2022/08/02 08:24:59;;;;;;;7.43;3.13;;;;;;;21.77;60.74;101558.06;5285311;28;20115;-73
2022/08/02 08:27:31;;;;;;;7.53;3.63;;;;;;;21.92;61.19;101545.00;5285440;28;20183;-73
2022/08/02 08:30:03;;;;;;;6.63;3.17;;;;;;;22.01;60.03;101547.22;5285189;28;20312;-74
2022/08/02 08:32:34;;;;;;;5.38;2.85;;;;;;;22.08;60.03;101543.31;5267156;28;20036;-75
2022/08/02 08:35:07;;;;;;;7.30;3.27;;;;;;;22.09;58.18;101542.38;5285491;28;20044;-73
2022/08/02 08:37:38;;;;;;;5.53;3.05;;;;;;;22.27;59.09;101527.31;5287567;28;20505;-73
2022/08/02 08:40:11;;;;;;;5.63;2.47;;;;;;;22.51;58.55;101532.38;5287464;28;20036;-73
2022/08/02 08:42:42;;;;;;;5.18;2.25;;;;;;;22.70;56.45;101540.22;5269198;28;20036;-73
2022/08/02 08:45:14;;;;;;;5.87;2.83;;;;;;;22.82;56.08;101534.28;5265619;28;20376;-74
2022/08/02 08:47:51;;;;;;;6.50;2.22;;;;;;;22.83;56.25;101532.47;5265207;28;20433;-74
2022/08/02 08:50:25;;;;;;;6.07;1.83;;;;;;;22.81;54.05;101551.16;5283593;28;20070;-72
2022/08/02 08:53:02;;;;;;;4.45;2.22;;;;;;;22.80;55.91;101549.47;5283112;28;20054;-74
2022/08/02 08:55:35;;;;;;;4.20;2.65;;;;;;;22.83;52.57;101545.78;5283950;28;20060;-73
2022/08/02 08:58:07;;;;;;;5.72;2.50;;;;;;;22.94;52.99;101543.41;5270629;28;20028;-74
2022/08/02 09:00:40;;;;;;;3.40;2.20;;;;;;;23.02;54.52;101533.22;5268017;28;20475;-74
2022/08/02 09:03:12;;;;;;;4.80;2.50;;;;;;;23.02;54.03;101532.38;5265521;28;20384;-74
2022/08/02 09:05:45;;;;;;;3.75;2.28;;;;;;;23.05;54.22;101530.41;5283328;28;20038;-74
2022/08/02 09:08:17;;;;;;;5.38;2.30;;;;;;;23.10;53.50;101540.81;5283093;28;20033;-74
2022/08/02 09:10:49;;;;;;;6.65;2.17;;;;;;;23.17;52.58;101547.56;5283021;28;20116;-75
2022/08/02 09:13:28;;;;;;;4.90;2.33;;;;;;;23.08;51.71;101546.22;5282741;28;20033;-74
2022/08/02 09:16:02;;;;;;;4.85;2.42;;;;;;;23.02;49.49;101557.16;5283111;28;20410;-73
2022/08/02 09:18:39;;;;;;;2.72;1.75;;;;;;;23.04;52.29;101528.69;5283869;28;20025;-74
2022/08/02 09:21:11;;;;;;;4.45;2.30;;;;;;;23.37;48.95;101561.56;5283150;28;20035;-73
2022/08/02 09:23:47;;;;;;;3.78;1.88;;;;;;;23.54;48.54;101539.34;5282847;28;20037;-72
2022/08/02 09:26:21;;;;;;;6.32;2.47;;;;;;;23.65;50.96;101537.81;5264357;28;20032;-74
2022/08/02 09:29:00;;;;;;;3.88;2.20;;;;;;;23.73;50.14;101547.16;5281913;28;20081;-74
2022/08/02 09:31:33;;;;;;;3.40;1.90;;;;;;;24.07;46.71;101531.94;5283138;28;20039;-74
2022/08/02 09:34:04;;;;;;;2.10;1.80;;;;;;;24.13;46.60;101532.44;5282444;28;20028;-75
2022/08/02 09:36:46;;;;;;;2.53;1.53;;;;;;;24.18;45.77;101533.06;5282718;28;20024;-74
2022/08/02 09:39:17;;;;;;;4.35;1.98;;;;;;;24.22;43.88;101533.75;5265211;28;20039;-75
2022/08/02 09:41:49;;;;;;;6.37;1.90;;;;;;;24.27;41.69;101529.00;5282655;28;20376;-74
2022/08/02 09:44:20;;;;;;;2.53;1.60;;;;;;;24.29;43.30;101540.41;5282443;28;20044;-75
2022/08/02 09:46:52;;;;;;;3.87;1.80;;;;;;;24.52;43.44;101531.06;5282507;28;20036;-75
2022/08/02 09:49:23;;;;;;;4.07;1.77;;;;;;;24.54;41.50;101538.97;5282238;28;20286;-74
2022/08/02 09:51:56;;;;;;;1.83;1.52;;;;;;;24.77;40.53;101550.94;5282808;28;20491;-74
2022/08/02 09:54:28;;;;;;;7.10;2.00;;;;;;;25.25;41.78;101537.34;5282552;28;20040;-75
2022/08/02 09:57:00;;;;;;;7.13;1.67;;;;;;;25.73;38.80;101561.91;5282845;28;20035;-74
2022/08/02 09:59:32;;;;;;;6.63;1.83;;;;;;;26.19;37.35;101531.31;5282507;28;20037;-74
2022/08/02 10:02:10;;;;;;;2.35;1.60;;;;;;;26.57;37.39;101541.22;5282436;28;20039;-75
2022/08/02 10:04:42;;;;;;;4.57;1.67;;;;;;;26.82;36.47;101542.22;5283141;28;20549;-74
2022/08/02 10:07:14;;;;;;;2.95;1.35;;;;;;;27.42;35.36;101543.41;5282343;28;20115;-73
2022/08/02 10:09:47;;;;;;;7.30;2.78;;;;;;;27.89;34.25;101543.56;5282420;28;20045;-74
2022/08/02 10:12:21;;;;;;;2.65;1.60;;;;;;;28.52;33.68;101517.34;5282651;28;20086;-75
2022/08/02 10:14:52;;;;;;;2.67;1.88;;;;;;;29.03;31.75;101537.53;5282247;28;20024;-76
2022/08/02 10:17:24;;;;;;;;;;;;;;;30.12;32.46;101534.06;5282793;28;20487;-74
2022/08/02 10:19:55;;;;;;;5.15;1.92;;;;;;;30.19;31.50;101532.59;5264342;28;19913;-74
2022/08/02 10:22:27;;;;;;;;;;;;;;;31.11;29.56;101522.97;5282793;28;20463;-75
2022/08/02 10:25:02;;;;;;;1.98;1.65;;;;;;;30.47;30.11;101524.88;5282747;28;19908;-75
2022/08/02 10:27:35;;;;;;;3.83;1.60;;;;;;;31.02;28.61;101518.41;5284640;28;20025;-74
2022/08/02 10:30:08;;;;;;;3.80;1.88;;;;;;;31.10;28.71;101515.88;5283737;28;20402;-74
2022/08/02 10:32:44;;;;;;;2.15;1.35;;;;;;;31.64;27.18;101519.19;5282697;28;20379;-73
2022/08/02 10:35:19;;;;;;;3.05;1.50;;;;;;;31.54;27.77;101516.47;5282508;28;20025;-74
2022/08/02 10:37:59;;;;;;;3.42;1.63;;;;;;;31.87;27.39;101522.44;5282139;28;20036;-75
2022/08/02 10:40:52;;;;;;;2.20;1.50;;;;;;;31.39;27.82;101515.13;5265403;28;20036;-75
2022/08/02 10:43:35;;;;;;;;;;;;;;;32.28;27.71;101520.47;5286054;28;20037;-74
2022/08/02 10:46:32;;;;;;;2.00;1.33;;;;;;;30.78;30.60;101511.47;5285567;28;19908;-75
2022/08/02 10:49:13;;;;;;;7.47;1.70;;;;;;;30.10;28.62;101511.00;5285913;28;20024;-74
2022/08/02 10:52:00;;;;;;;5.07;1.45;;;;;;;30.00;29.79;101519.84;5285878;28;20044;-73
2022/08/02 10:54:35;;;;;;;5.22;1.77;;;;;;;29.50;30.12;101508.75;5285751;28;20112;-73
2022/08/02 10:57:19;;;;;;;2.47;1.30;;;;;;;30.14;29.15;101513.31;5285905;28;20035;-73
2022/08/02 11:00:14;;;;;;;2.83;1.30;;;;;;;30.82;28.27;101517.44;5285473;28;20074;-74
2022/08/02 11:02:46;;;;;;;3.55;1.48;;;;;;;30.98;31.52;101507.06;5250004;28;20049;-75
2022/08/02 11:05:33;;;;;;;3.92;1.40;;;;;;;32.09;28.13;101507.00;5285653;28;20368;-75
2022/08/02 11:08:18;;;;;;;2.97;1.42;;;;;;;33.66;25.68;101513.53;5285898;28;20109;-74
2022/08/02 11:10:50;;;;;;;3.70;1.40;;;;;;;33.31;24.21;101515.16;5268036;28;20482;-75
2022/08/02 11:13:21;;;;;;;1.25;1.15;;;;;;;32.79;25.26;101515.69;5268888;28;20036;-75
2022/08/02 11:16:03;;;;;;;4.80;1.80;;;;;;;32.61;24.92;101507.47;5269805;28;20025;-74
2022/08/02 11:18:50;;;;;;;3.03;1.60;;;;;;;33.54;24.77;101503.97;5286507;28;20081;-75
2022/08/02 11:21:27;;;;;;;3.88;1.52;;;;;;;33.80;25.66;101504.06;5285310;28;20086;-75
2022/08/02 11:24:26;;;;;;;2.97;1.60;;;;;;;34.35;23.54;101500.31;5284957;28;20036;-74
2022/08/02 11:27:08;;;;;;;4.70;1.63;;;;;;;33.90;25.72;101506.69;5284738;28;20483;-75
2022/08/02 11:29:41;;;;;;;2.13;1.40;;;;;;;33.52;23.82;101505.94;5267194;28;20028;-75
2022/08/02 11:32:23;;;;;;;4.45;1.35;;;;;;;34.24;24.53;101498.69;5284953;28;20033;-75
2022/08/02 11:34:55;;;;;;;;;;;;;;;35.74;22.55;101500.09;5285416;28;20117;-75
2022/08/02 11:37:34;;;;;;;2.00;1.25;;;;;;;33.49;24.95;101500.84;5284694;28;19917;-75
2022/08/02 11:40:14;;;;;;;3.22;1.45;;;;;;;32.30;24.59;101491.50;5284462;28;20024;-75
2022/08/02 11:42:52;;;;;;;3.88;1.40;;;;;;;31.45;26.38;101493.84;5284778;28;20128;-75
2022/08/02 11:45:25;;;;;;;2.83;1.58;;;;;;;30.82;25.67;101504.00;5285122;28;20071;-74
2022/08/02 11:47:56;;;;;;;4.22;1.40;;;;;;;30.79;26.12;101497.03;5284525;28;20033;-74
2022/08/02 11:50:28;;;;;;;7.30;2.13;;;;;;;31.80;25.86;101499.75;5284592;28;20052;-74
2022/08/02 11:52:59;;;;;;;5.45;1.85;;;;;;;32.28;24.33;101511.50;5284889;28;20044;-75
2022/08/02 11:55:31;;;;;;;3.22;1.30;;;;;;;33.17;24.68;101502.19;5284559;28;20037;-74
2022/08/02 11:58:06;;;;;;;4.78;1.42;;;;;;;33.17;24.90;101492.22;5267113;28;20064;-74
2022/08/02 12:00:38;;;;;;;3.33;1.58;;;;;;;34.91;22.92;101487.28;5286866;28;20034;-74
2022/08/02 12:03:10;;;;;;;4.78;1.98;;;;;;;34.40;21.41;101489.00;5285700;28;20115;-74
2022/08/02 12:05:48;;;;;;;2.85;1.60;;;;;;;35.16;22.65;101490.91;5284315;28;20040;-74